Time;durP1;ratioP1;P1;durP2;ratioP2;P2;SDS_P1;SDS_P2;PMS_P1;PMS_P2;Temp;Humidity;BMP_temperature;BMP_pressure;BME280_temperature;BME280_humidity;BME280_pressure;Samples;Min_cycle;Max_cycle;Signal;HPM_P1;HPM_P2
2024/04/01 00:01:35;;;;;;;;;;;10.90;1.00;;;;;;5016703;28;20395;-85
2024/04/01 00:04:00;;;;;;;;;;;10.90;1.00;;;;;;5008250;28;19910;-85
2024/04/01 00:06:26;;;;;;;;;;;10.90;1.00;;;;;;5010757;28;19918;-85
2024/04/01 00:08:51;;;;;;;;;;;10.90;1.00;;;;;;5002244;28;20282;-85
2024/04/01 00:11:17;;;;;;;;;;;10.90;1.00;;;;;;4997532;28;19914;-85
2024/04/01 00:13:42;;;;;;;;;;;10.90;1.00;;;;;;5015829;28;19968;-84
2024/04/01 00:16:08;;;;;;;;;;;10.80;1.00;;;;;;5015355;28;19910;-85
2024/04/01 00:18:33;;;;;;;;;;;10.80;1.00;;;;;;5014569;28;19965;-85
2024/04/01 00:20:59;;;;;;;;;;;10.80;1.00;;;;;;5014326;28;19925;-85
2024/04/01 00:23:24;;;;;;;;;;;10.80;1.00;;;;;;5022906;28;19917;-84
2024/04/01 00:25:50;;;;;;;;;;;10.80;1.00;;;;;;5004296;28;20030;-84
2024/04/01 00:28:15;;;;;;;;;;;10.70;1.00;;;;;;5023149;28;19928;-87
2024/04/01 00:30:41;;;;;;;;;;;10.70;1.00;;;;;;5009007;28;19917;-85
2024/04/01 00:33:09;;;;;;;;;;;10.60;1.00;;;;;;4999373;28;19923;-85
2024/04/01 00:35:41;;;;;;;;;;;10.70;1.00;;;;;;5017322;28;20417;-85
2024/04/01 00:38:06;;;;;;;;;;;10.60;1.00;;;;;;5019350;28;19916;-86
2024/04/01 00:40:35;;;;;;;;;;;10.60;1.00;;;;;;5024819;28;19914;-86
2024/04/01 00:43:05;;;;;;;;;;;10.60;1.00;;;;;;5010867;28;19923;-85
2024/04/01 00:45:30;;;;;;;;;;;10.60;1.00;;;;;;5009885;28;19917;-86
2024/04/01 00:47:59;;;;;;;;;;;10.60;1.00;;;;;;4999312;28;19928;-85
2024/04/01 00:50:26;;;;;;;;;;;10.60;1.00;;;;;;5019810;28;20398;-86
2024/04/01 00:52:52;;;;;;;;;;;10.60;1.00;;;;;;5020160;28;19936;-85
2024/04/01 00:55:17;;;;;;;;;;;10.60;1.00;;;;;;5020312;28;19913;-86
2024/04/01 00:57:43;;;;;;;;;;;10.60;1.00;;;;;;5027837;28;19909;-85
2024/04/01 01:00:10;;;;;;;;;;;10.60;1.00;;;;;;5008277;28;19914;-84
2024/04/01 01:02:36;;;;;;;;;;;10.60;1.00;;;;;;5013440;28;19956;-85
2024/04/01 01:05:01;;;;;;;;;;;10.60;1.00;;;;;;5022964;28;19914;-85
2024/04/01 01:07:27;;;;;;;;;;;10.60;1.00;;;;;;5005359;28;20380;-85
2024/04/01 01:09:52;;;;;;;;;;;10.60;1.00;;;;;;5021299;28;19910;-85
2024/04/01 01:12:19;;;;;;;;;;;10.60;1.00;;;;;;5020476;28;19914;-86
2024/04/01 01:14:45;;;;;;;;;;;10.70;1.00;;;;;;5012880;28;19914;-84
2024/04/01 01:17:11;;;;;;;;;;;10.70;1.00;;;;;;5018915;28;19980;-85
2024/04/01 01:19:37;;;;;;;;;;;10.70;1.00;;;;;;5006617;28;19914;-86
2024/04/01 01:22:05;;;;;;;;;;;10.70;1.00;;;;;;5007826;28;19920;-84
2024/04/01 01:24:32;;;;;;;;;;;10.70;1.00;;;;;;5017470;28;19968;-85
2024/04/01 01:27:01;;;;;;;;;;;10.70;1.00;;;;;;5001004;28;19910;-85
2024/04/01 01:29:29;;;;;;;;;;;10.80;1.00;;;;;;5024053;28;19925;-85
2024/04/01 01:31:55;;;;;;;;;;;10.70;1.00;;;;;;5017274;28;19921;-85
2024/04/01 01:34:21;;;;;;;;;;;10.70;1.00;;;;;;5017221;28;19972;-85
2024/04/01 01:36:47;;;;;;;;;;;10.70;1.00;;;;;;5019936;28;19914;-85
2024/04/01 01:39:12;;;;;;;;;;;10.70;1.00;;;;;;5017858;28;19986;-85
2024/04/01 01:41:38;;;;;;;;;;;10.60;1.00;;;;;;5007075;28;19924;-85
2024/04/01 01:44:03;;;;;;;;;;;10.60;1.00;;;;;;5017229;28;19913;-86
2024/04/01 01:46:31;;;;;;;;;;;10.50;1.00;;;;;;5020942;28;19917;-85
2024/04/01 01:48:56;;;;;;;;;;;10.50;1.00;;;;;;5020082;28;19910;-86
2024/04/01 01:51:22;;;;;;;;;;;10.40;1.00;;;;;;5019924;28;20272;-85
2024/04/01 01:53:47;;;;;;;;;;;10.40;1.00;;;;;;5011221;28;19910;-85
2024/04/01 01:56:13;;;;;;;;;;;10.30;1.00;;;;;;5016864;28;20016;-85
2024/04/01 01:58:38;;;;;;;;;;;10.30;1.00;;;;;;5031810;28;19921;-87
2024/04/01 02:01:04;;;;;;;;;;;10.20;1.00;;;;;;5025449;28;19910;-85
2024/04/01 02:03:29;;;;;;;;;;;10.20;1.00;;;;;;5026325;28;20307;-86
2024/04/01 02:05:54;;;;;;;;;;;10.20;1.00;;;;;;5021220;28;19917;-86
2024/04/01 02:08:20;;;;;;;;;;;10.20;1.00;;;;;;4998837;28;20039;-85
2024/04/01 02:10:55;;;;;;;;;;;10.20;1.00;;;;;;5009858;28;19949;-87
2024/04/01 02:13:22;;;;;;;;;;;10.20;1.00;;;;;;5025709;28;19951;-87
2024/04/01 02:15:47;;;;;;;;;;;10.20;1.00;;;;;;5018513;28;19936;-86
2024/04/01 02:18:12;;;;;;;;;;;10.20;1.00;;;;;;5001453;28;20027;-84
2024/04/01 02:20:38;;;;;;;;;;;10.20;1.00;;;;;;5026150;28;19910;-86
2024/04/01 02:23:03;;;;;;;;;;;10.30;1.00;;;;;;5019115;28;19956;-86
2024/04/01 02:25:29;;;;;;;;;;;10.30;1.00;;;;;;5018554;28;19945;-85
2024/04/01 02:27:54;;;;;;;;;;;10.30;1.00;;;;;;5009685;28;19909;-84
2024/04/01 02:30:22;;;;;;;;;;;10.30;1.00;;;;;;4999917;28;19913;-86
2024/04/01 02:32:47;;;;;;;;;;;10.30;1.00;;;;;;5017382;28;19918;-85
2024/04/01 02:35:13;;;;;;;;;;;10.30;1.00;;;;;;5016843;28;19910;-85
2024/04/01 02:37:38;;;;;;;;;;;10.30;1.00;;;;;;5017305;28;19913;-86
2024/04/01 02:40:05;;;;;;;;;;;10.40;1.00;;;;;;5016051;28;20152;-84
2024/04/01 02:42:31;;;;;;;;;;;10.40;1.00;;;;;;4993652;28;20021;-85
2024/04/01 02:44:56;;;;;;;;;;;10.40;1.00;;;;;;4991128;28;20021;-83
2024/04/01 02:47:22;;;;;;;;;;;10.40;1.00;;;;;;4996756;28;19914;-85
2024/04/01 02:49:47;;;;;;;;;;;10.40;1.00;;;;;;5002716;28;19910;-85
2024/04/01 02:52:13;;;;;;;;;;;10.40;1.00;;;;;;5009928;28;20398;-85
2024/04/01 02:54:38;;;;;;;;;;;10.40;1.00;;;;;;4994132;28;19921;-85
2024/04/01 02:57:04;;;;;;;;;;;10.40;1.00;;;;;;5001166;28;19965;-86
2024/04/01 02:59:29;;;;;;;;;;;10.40;1.00;;;;;;5002234;28;19910;-85
2024/04/01 03:01:54;;;;;;;;;;;10.40;1.00;;;;;;4984808;28;19920;-85
2024/04/01 03:04:20;;;;;;;;;;;10.40;1.00;;;;;;5001924;28;20356;-86
2024/04/01 03:06:45;;;;;;;;;;;10.40;1.00;;;;;;5005401;28;19909;-83
2024/04/01 03:09:11;;;;;;;;;;;10.40;1.00;;;;;;5018591;28;20303;-84
2024/04/01 03:11:36;;;;;;;;;;;10.40;1.00;;;;;;5018598;28;19917;-85
2024/04/01 03:14:02;;;;;;;;;;;10.40;1.00;;;;;;5018853;28;19914;-84
2024/04/01 03:16:27;;;;;;;;;;;10.40;1.00;;;;;;5002021;28;19909;-84
2024/04/01 03:18:53;;;;;;;;;;;10.40;1.00;;;;;;5025695;28;19909;-85
2024/04/01 03:21:18;;;;;;;;;;;10.40;1.00;;;;;;5017929;28;20009;-84
2024/04/01 03:23:44;;;;;;;;;;;10.40;1.00;;;;;;5019740;28;19932;-85
2024/04/01 03:26:09;;;;;;;;;;;10.30;1.00;;;;;;5009690;28;19918;-84
2024/04/01 03:28:35;;;;;;;;;;;10.30;1.00;;;;;;5017950;28;19909;-85
2024/04/01 03:31:05;;;;;;;;;;;10.30;1.00;;;;;;5018304;28;19916;-84
2024/04/01 03:33:30;;;;;;;;;;;10.30;1.00;;;;;;4999574;28;20295;-85
2024/04/01 03:35:56;;;;;;;;;;;10.30;1.00;;;;;;5017962;28;19920;-86
2024/04/01 03:38:21;;;;;;;;;;;10.30;1.00;;;;;;4999929;28;19917;-84
2024/04/01 03:40:47;;;;;;;;;;;10.20;1.00;;;;;;5017481;28;20356;-85
2024/04/01 03:43:13;;;;;;;;;;;10.20;1.00;;;;;;4990406;28;19917;-84
2024/04/01 03:45:38;;;;;;;;;;;10.10;1.00;;;;;;5016656;28;19948;-85
2024/04/01 03:48:04;;;;;;;;;;;10.20;1.00;;;;;;5014298;28;20273;-85
2024/04/01 03:50:31;;;;;;;;;;;10.20;1.00;;;;;;4997623;28;19916;-85
2024/04/01 03:52:57;;;;;;;;;;;10.20;1.00;;;;;;5015151;28;19913;-86
2024/04/01 03:55:22;;;;;;;;;;;10.30;1.00;;;;;;4997399;28;19921;-86
2024/04/01 03:57:48;;;;;;;;;;;10.30;1.00;;;;;;5015427;28;20368;-85
2024/04/01 04:00:14;;;;;;;;;;;10.30;1.00;;;;;;5012145;28;19914;-85
2024/04/01 04:02:42;;;;;;;;;;;10.40;1.00;;;;;;4992083;28;19913;-85
2024/04/01 04:05:09;;;;;;;;;;;10.40;1.00;;;;;;5011212;28;19919;-85
2024/04/01 04:07:34;;;;;;;;;;;10.40;1.00;;;;;;5021586;28;19949;-85
2024/04/01 04:10:00;;;;;;;;;;;10.40;1.00;;;;;;5016969;28;19910;-85
2024/04/01 04:12:30;;;;;;;;;;;10.40;1.00;;;;;;5019467;28;19913;-85
2024/04/01 04:14:58;;;;;;;;;;;10.40;1.00;;;;;;5004234;28;19937;-86
2024/04/01 04:17:23;;;;;;;;;;;10.50;1.00;;;;;;5020751;28;19910;-86
2024/04/01 04:19:49;;;;;;;;;;;10.50;1.00;;;;;;5013844;28;19936;-85
2024/04/01 04:22:14;;;;;;;;;;;10.50;1.00;;;;;;5022190;28;19909;-86
2024/04/01 04:24:42;;;;;;;;;;;10.50;1.00;;;;;;5002886;28;19913;-85
2024/04/01 04:27:08;;;;;;;;;;;10.50;1.00;;;;;;5004365;28;19910;-85
2024/04/01 04:29:33;;;;;;;;;;;10.60;1.00;;;;;;5018630;28;20364;-85
2024/04/01 04:32:07;;;;;;;;;;;10.60;1.00;;;;;;5004998;28;19909;-85
2024/04/01 04:34:33;;;;;;;;;;;10.60;1.00;;;;;;5019968;28;19918;-86
2024/04/01 04:36:59;;;;;;;;;;;10.60;1.00;;;;;;5018617;28;19948;-85
2024/04/01 04:39:24;;;;;;;;;;;10.60;1.00;;;;;;5042351;23;19956;-84
2024/04/01 04:41:50;;;;;;;;;;;10.60;1.00;;;;;;5021395;28;20099;-84
2024/04/01 04:44:16;;;;;;;;;;;10.60;1.00;;;;;;5030479;28;19972;-85
2024/04/01 04:46:41;;;;;;;;;;;10.60;1.00;;;;;;5030274;28;19910;-86
2024/04/01 04:49:07;;;;;;;;;;;10.60;1.00;;;;;;5017383;28;19917;-84
2024/04/01 04:51:33;;;;;;;;;;;10.70;1.00;;;;;;5010407;28;19910;-84
2024/04/01 04:53:59;;;;;;;;;;;10.60;1.00;;;;;;5009858;28;19917;-88
2024/04/01 04:56:25;;;;;;;;;;;10.70;1.00;;;;;;5009214;28;19949;-85
2024/04/01 04:58:53;;;;;;;;;;;10.70;1.00;;;;;;5011758;28;19924;-85
2024/04/01 05:01:22;;;;;;;;;;;10.70;1.00;;;;;;5009513;28;19909;-86
2024/04/01 05:03:47;;;;;;;;;;;10.70;1.00;;;;;;5010379;28;20323;-85
2024/04/01 05:06:13;;;;;;;;;;;10.70;1.00;;;;;;5010488;28;19937;-85
2024/04/01 05:08:39;;;;;;;;;;;10.70;1.00;;;;;;5010202;28;19917;-85
2024/04/01 05:11:07;;;;;;;;;;;10.70;1.00;;;;;;5010308;28;20008;-85
2024/04/01 05:13:35;;;;;;;;;;;10.70;1.00;;;;;;4988199;28;19974;-85
2024/04/01 05:16:03;;;;;;;;;;;10.70;1.00;;;;;;4994870;28;20265;-83
2024/04/01 05:18:29;;;;;;;;;;;10.70;1.00;;;;;;4976873;28;20344;-86
2024/04/01 05:20:54;;;;;;;;;;;10.80;1.00;;;;;;4994435;28;19913;-83
2024/04/01 05:23:20;;;;;;;;;;;10.80;1.00;;;;;;4994159;28;20376;-83
2024/04/01 05:25:45;;;;;;;;;;;10.80;1.00;;;;;;4992067;28;19964;-84
2024/04/01 05:28:11;;;;;;;;;;;10.80;1.00;;;;;;4997247;28;19917;-85
2024/04/01 05:30:36;;;;;;;;;;;10.80;1.00;;;;;;4993510;28;20418;-84
2024/04/01 05:33:02;;;;;;;;;;;10.80;1.00;;;;;;4975659;28;19964;-84
2024/04/01 05:35:32;;;;;;;;;;;10.80;1.00;;;;;;4993028;28;19909;-84
2024/04/01 05:37:58;;;;;;;;;;;10.80;1.00;;;;;;4992579;28;19921;-84
2024/04/01 05:40:25;;;;;;;;;;;10.80;1.00;;;;;;4994700;28;19914;-86
2024/04/01 05:42:51;;;;;;;;;;;10.70;1.00;;;;;;4981170;28;19949;-84
2024/04/01 05:45:16;;;;;;;;;;;10.80;1.00;;;;;;5008179;28;20272;-84
2024/04/01 05:47:42;;;;;;;;;;;10.70;1.00;;;;;;5004924;28;20315;-85
2024/04/01 05:50:08;;;;;;;;;;;10.70;1.00;;;;;;5010552;28;20012;-84
2024/04/01 05:52:33;;;;;;;;;;;10.70;1.00;;;;;;5001533;28;19914;-84
2024/04/01 05:54:59;;;;;;;;;;;10.70;1.00;;;;;;4983215;28;20292;-84
2024/04/01 05:57:24;;;;;;;;;;;10.70;1.00;;;;;;5001783;28;19972;-83
2024/04/01 05:59:49;;;;;;;;;;;10.60;1.00;;;;;;5001199;28;19933;-83
2024/04/01 06:02:15;;;;;;;;;;;10.70;1.00;;;;;;5007168;28;19949;-84
2024/04/01 06:04:40;;;;;;;;;;;10.70;1.00;;;;;;5001210;28;20388;-82
2024/04/01 06:07:06;;;;;;;;;;;10.80;1.00;;;;;;5000965;28;20013;-84
2024/04/01 06:09:32;;;;;;;;;;;10.80;1.00;;;;;;5000578;28;19937;-83
2024/04/01 06:11:58;;;;;;;;;;;10.80;1.00;;;;;;4993225;28;19917;-83
2024/04/01 06:14:24;;;;;;;;;;;10.80;1.00;;;;;;5008848;28;19922;-85
2024/04/01 06:16:49;;;;;;;;;;;10.80;1.00;;;;;;5003668;28;19909;-84
2024/04/01 06:19:16;;;;;;;;;;;10.80;1.00;;;;;;5010241;28;19968;-85
2024/04/01 06:21:41;;;;;;;;;;;10.70;1.00;;;;;;5018495;28;19981;-85
2024/04/01 06:24:07;;;;;;;;;;;10.70;1.00;;;;;;5011445;28;19913;-84
2024/04/01 06:26:33;;;;;;;;;;;10.70;1.00;;;;;;5008379;28;19963;-84
2024/04/01 06:28:59;;;;;;;;;;;10.70;1.00;;;;;;5015367;28;19909;-84
2024/04/01 06:31:24;;;;;;;;;;;10.70;1.00;;;;;;5012844;28;19973;-85
2024/04/01 06:33:50;;;;;;;;;;;10.70;1.00;;;;;;4995475;28;19910;-84
2024/04/01 06:36:15;;;;;;;;;;;10.60;1.00;;;;;;5003890;28;19917;-83
2024/04/01 06:38:41;;;;;;;;;;;10.60;1.00;;;;;;5001242;28;19925;-84
2024/04/01 06:41:06;;;;;;;;;;;10.60;1.00;;;;;;5003993;28;19909;-83
2024/04/01 06:43:32;;;;;;;;;;;10.60;1.00;;;;;;4985449;28;20496;-83
2024/04/01 06:45:58;;;;;;;;;;;10.60;1.00;;;;;;5002452;28;20299;-83
2024/04/01 06:48:24;;;;;;;;;;;10.60;1.00;;;;;;5002164;28;20292;-83
2024/04/01 06:50:50;;;;;;;;;;;10.60;1.00;;;;;;5002986;28;19910;-82
2024/04/01 06:53:17;;;;;;;;;;;10.60;1.00;;;;;;5007627;28;19914;-84
2024/04/01 06:55:46;;;;;;;;;;;10.60;1.00;;;;;;5012256;28;19922;-84
2024/04/01 06:58:12;;;;;;;;;;;10.60;1.00;;;;;;5011801;28;19925;-83
2024/04/01 07:00:38;;;;;;;;;;;10.60;1.00;;;;;;5006606;28;19910;-86
2024/04/01 07:03:03;;;;;;;;;;;10.60;2.00;;;;;;5008981;28;20452;-84
2024/04/01 07:05:29;;;;;;;;;;;10.70;5.30;;;;;;5009807;28;19910;-84
2024/04/01 07:07:55;;;;;;;;;;;10.70;7.50;;;;;;5010618;28;19917;-84
2024/04/01 07:10:20;;;;;;;;;;;10.80;8.80;;;;;;4992119;28;19920;-84
2024/04/01 07:12:46;;;;;;;;;;;10.80;6.80;;;;;;5010639;28;20435;-84
2024/04/01 07:15:12;;;;;;;;;;;10.80;7.10;;;;;;5012318;28;19921;-84
2024/04/01 07:17:38;;;;;;;;;;;10.90;8.80;;;;;;5012090;28;19913;-84
2024/04/01 07:20:04;;;;;;;;;;;11.10;6.00;;;;;;5011407;28;19914;-84
2024/04/01 07:22:30;;;;;;;;;;;11.20;1.00;;;;;;5008131;28;19913;-84
2024/04/01 07:24:55;;;;;;;;;;;11.40;1.00;;;;;;4995108;28;19964;-84
2024/04/01 07:27:21;;;;;;;;;;;11.60;1.00;;;;;;5013126;28;19917;-84
2024/04/01 07:29:46;;;;;;;;;;;11.70;1.00;;;;;;5013644;28;19901;-83
2024/04/01 07:32:12;;;;;;;;;;;11.80;1.00;;;;;;5012281;28;19963;-84
2024/04/01 07:34:37;;;;;;;;;;;11.90;1.00;;;;;;4994803;28;19924;-84
2024/04/01 07:37:04;;;;;;;;;;;12.10;1.00;;;;;;4994153;28;19952;-82
2024/04/01 07:39:29;;;;;;;;;;;12.20;1.00;;;;;;5009137;28;19993;-85
2024/04/01 07:41:55;;;;;;;;;;;12.20;1.00;;;;;;5011389;28;19910;-84
2024/04/01 07:44:20;;;;;;;;;;;12.10;1.00;;;;;;5011324;28;19914;-86
2024/04/01 07:46:46;;;;;;;;;;;12.00;1.00;;;;;;5012811;28;19910;-84
2024/04/01 07:49:12;;;;;;;;;;;11.80;1.00;;;;;;4995253;28;19917;-84
2024/04/01 07:51:37;;;;;;;;;;;11.60;1.00;;;;;;5012269;28;19914;-84
2024/04/01 07:54:03;;;;;;;;;;;11.50;1.00;;;;;;5013987;28;19929;-86
2024/04/01 07:56:29;;;;;;;;;;;11.40;1.00;;;;;;5010731;28;19914;-84
2024/04/01 07:58:54;;;;;;;;;;;11.30;1.00;;;;;;4980657;28;19972;-83
2024/04/01 08:01:20;;;;;;;;;;;11.20;1.00;;;;;;4999557;28;19945;-83
2024/04/01 08:03:45;;;;;;;;;;;11.20;1.00;;;;;;4980348;28;19910;-82
2024/04/01 08:06:11;;;;;;;;;;;11.20;1.00;;;;;;4987806;28;19935;-87
2024/04/01 08:08:37;;;;;;;;;;;11.20;1.00;;;;;;4998686;28;19910;-84
2024/04/01 08:11:03;;;;;;;;;;;11.30;1.00;;;;;;5011780;28;19917;-84
2024/04/01 08:13:28;;;;;;;;;;;11.30;1.00;;;;;;5012293;28;19920;-85
2024/04/01 08:16:00;;;;;;;;;;;11.30;1.00;;;;;;4994454;28;19921;-85
2024/04/01 08:18:26;;;;;;;;;;;11.20;1.00;;;;;;5011628;28;19965;-83
2024/04/01 08:20:51;;;;;;;;;;;11.20;1.00;;;;;;5009370;28;19914;-84
2024/04/01 08:23:17;;;;;;;;;;;11.10;1.00;;;;;;5000056;28;19910;-84
2024/04/01 08:25:42;;;;;;;;;;;11.10;5.40;;;;;;5009884;28;19965;-85
2024/04/01 08:28:08;;;;;;;;;;;11.10;9.70;;;;;;5014779;28;19917;-84
2024/04/01 08:30:33;;;;;;;;;;;11.10;12.10;;;;;;5009524;28;19993;-84
2024/04/01 08:32:59;;;;;;;;;;;11.20;12.50;;;;;;5003512;28;19913;-83
2024/04/01 08:35:25;;;;;;;;;;;11.20;12.00;;;;;;4988741;28;19914;-84
2024/04/01 08:37:50;;;;;;;;;;;11.20;9.00;;;;;;4985193;28;19969;-81
2024/04/01 08:40:16;;;;;;;;;;;11.30;10.90;;;;;;4998605;28;19953;-83
2024/04/01 08:42:43;;;;;;;;;;;11.50;10.50;;;;;;5002519;28;19914;-84
2024/04/01 08:45:12;;;;;;;;;;;11.70;1.00;;;;;;4986755;28;19937;-84
2024/04/01 08:47:40;;;;;;;;;;;12.00;1.00;;;;;;5004373;28;19914;-82
2024/04/01 08:50:09;;;;;;;;;;;12.10;1.00;;;;;;5004453;28;19976;-82
2024/04/01 08:52:48;;;;;;;;;;;12.20;1.00;;;;;;4988595;28;19917;-84
2024/04/01 08:55:14;;;;;;;;;;;12.20;1.00;;;;;;5007846;28;19924;-84
2024/04/01 08:57:39;;;;;;;;;;;12.10;1.00;;;;;;4986361;28;19914;-83
2024/04/01 09:00:07;;;;;;;;;;;12.10;1.00;;;;;;4986022;28;19914;-83
2024/04/01 09:02:32;;;;;;;;;;;12.10;1.00;;;;;;5003019;28;19953;-84
2024/04/01 09:04:58;;;;;;;;;;;12.10;1.00;;;;;;5000784;28;19910;-82
2024/04/01 09:07:23;;;;;;;;;;;12.00;1.00;;;;;;4984685;28;20458;-83
2024/04/01 09:09:49;;;;;;;;;;;11.90;1.00;;;;;;5002840;28;19910;-82
2024/04/01 09:12:15;;;;;;;;;;;11.80;1.00;;;;;;5003179;28;19910;-82
2024/04/01 09:14:40;;;;;;;;;;;11.80;1.00;;;;;;4985180;28;19914;-83
2024/04/01 09:17:06;;;;;;;;;;;11.80;1.00;;;;;;5008304;28;20009;-83
2024/04/01 09:19:31;;;;;;;;;;;11.80;1.00;;;;;;5018228;28;19913;-85
2024/04/01 09:22:01;;;;;;;;;;;11.90;1.00;;;;;;5012850;28;19917;-84
2024/04/01 09:24:27;;;;;;;;;;;11.90;1.00;;;;;;5001677;28;19914;-83
2024/04/01 09:26:53;;;;;;;;;;;12.00;1.00;;;;;;5012921;28;19910;-84
2024/04/01 09:29:20;;;;;;;;;;;12.20;1.00;;;;;;5016243;28;19917;-83
2024/04/01 09:31:45;;;;;;;;;;;12.30;1.00;;;;;;5014106;28;19910;-84
2024/04/01 09:34:11;;;;;;;;;;;12.40;1.00;;;;;;5015146;28;19921;-84
2024/04/01 09:36:36;;;;;;;;;;;12.50;1.00;;;;;;5019931;28;19910;-84
2024/04/01 09:39:02;;;;;;;;;;;12.60;1.00;;;;;;5015670;28;19928;-84
2024/04/01 09:41:28;;;;;;;;;;;12.90;1.00;;;;;;5016393;28;19967;-84
2024/04/01 09:43:57;;;;;;;;;;;13.20;1.00;;;;;;5018519;28;19937;-83
2024/04/01 09:46:23;;;;;;;;;;;13.60;99.90;;;;;;4998208;28;19925;-85
2024/04/01 09:48:50;;;;;;;;;;;14.00;1.00;;;;;;5005468;28;20004;-84
2024/04/01 09:51:17;;;;;;;;;;;14.60;25.80;;;;;;5010345;28;19941;-84
2024/04/01 09:53:43;;;;;;;;;;;15.20;1.00;;;;;;4988823;28;19914;-84
2024/04/01 09:56:24;;;;;;;;;;;15.70;99.90;;;;;;4996066;28;19921;-83
2024/04/01 09:58:52;;;;;;;;;;;16.30;1.00;;;;;;5002088;28;19914;-84
2024/04/01 10:01:18;;;;;;;;;;;16.90;99.90;;;;;;5004309;28;19914;-82
2024/04/01 10:03:44;;;;;;;;;;;16.90;99.90;;;;;;5005759;28;19993;-84
2024/04/01 10:06:28;;;;;;;;;;;16.60;1.00;;;;;;5005095;28;21245;-83
2024/04/01 10:09:03;;;;;;;;;;;16.50;31.10;;;;;;5007963;28;19946;-83
2024/04/01 10:11:28;;;;;;;;;;;16.60;93.40;;;;;;4984257;28;19914;-84
2024/04/01 10:14:05;;;;;;;;;;;17.10;1.00;;;;;;5009115;28;19956;-83
2024/04/01 10:16:33;;;;;;;;;;;17.50;1.00;;;;;;4984302;28;19918;-84
2024/04/01 10:18:59;;;;;;;;;;;17.70;1.00;;;;;;5010834;28;19924;-84
2024/04/01 10:21:30;;;;;;;;;;;17.50;1.00;;;;;;5010266;28;19914;-84
2024/04/01 10:23:56;;;;;;;;;;;17.10;1.00;;;;;;5006485;28;19914;-84
2024/04/01 10:26:27;;;;;;;;;;;16.80;1.00;;;;;;5011635;28;19898;-84
2024/04/01 10:29:05;;;;;;;;;;;16.60;1.00;;;;;;5018432;28;19921;-83
2024/04/01 10:31:49;;;;;;;;;;;16.40;1.00;;;;;;5005458;28;19909;-84
2024/04/01 10:34:27;;;;;;;;;;;16.20;1.00;;;;;;4992095;28;19921;-82
2024/04/01 10:37:16;;;;;;;;;;;16.20;1.00;;;;;;5008016;28;19960;-82
2024/04/01 10:39:49;;;;;;;;;;;16.20;1.00;;;;;;4987113;28;20012;-83
2024/04/01 10:42:33;;;;;;;;;;;16.30;1.00;;;;;;5004656;28;19914;-82
2024/04/01 10:45:02;;;;;;;;;;;16.40;1.00;;;;;;5008672;28;19910;-83
2024/04/01 10:47:46;;;;;;;;;;;16.30;1.00;;;;;;5009502;28;19921;-83
2024/04/01 10:50:47;;;;;;;;;;;16.10;1.00;;;;;;5033494;23;19925;-87
2024/04/01 10:53:12;;;;;;;;;;;15.80;1.00;;;;;;4963459;28;20401;-87
2024/04/01 10:55:58;;;;;;;;;;;15.50;1.00;;;;;;4992762;28;19925;-88
2024/04/01 10:58:24;;;;;;;;;;;15.30;1.00;;;;;;4996391;28;19942;-86
2024/04/01 11:00:56;;;;;;;;;;;15.10;1.00;;;;;;4998742;28;19959;-84
2024/04/01 11:03:27;;;;;;;;;;;14.90;47.40;;;;;;5004107;28;20008;-88
2024/04/01 11:05:55;;;;;;;;;;;14.70;99.90;;;;;;5001755;28;19945;-89
2024/04/01 11:08:30;;;;;;;;;;;14.60;99.90;;;;;;5001816;28;19918;-88
2024/04/01 11:11:17;;;;;;;;;;;14.50;99.90;;;;;;4998478;28;19937;-88
2024/04/01 11:13:43;;;;;;;;;;;14.40;99.90;;;;;;4972940;28;19909;-87
2024/04/01 11:16:09;;;;;;;;;;;14.30;99.90;;;;;;5006171;28;19913;-88
2024/04/01 11:18:37;;;;;;;;;;;14.30;99.90;;;;;;5014642;28;19922;-88
2024/04/01 11:21:17;;;;;;;;;;;14.20;99.90;;;;;;5006404;28;19925;-88
2024/04/01 11:24:05;;;;;;;;;;;14.20;99.90;;;;;;4990015;28;20040;-88
2024/04/01 11:26:49;;;;;;;;;;;14.10;1.00;;;;;;4999975;28;19914;-87
2024/04/01 11:29:34;;;;;;;;;;;14.10;99.90;;;;;;4993346;28;19913;-86
2024/04/01 11:32:00;;;;;;;;;;;13.90;1.00;;;;;;4986902;28;19909;-88
2024/04/01 11:34:38;;;;;;;;;;;13.90;1.00;;;;;;5011755;28;19920;-86
2024/04/01 11:37:19;;;;;;;;;;;13.90;1.00;;;;;;4997076;28;19914;-88
2024/04/01 11:39:47;;;;;;;;;;;14.00;1.00;;;;;;4991765;28;20023;-88
2024/04/01 11:42:14;;;;;;;;;;;14.10;1.00;;;;;;4992251;28;19999;-86
2024/04/01 11:44:40;;;;;;;;;;;14.10;1.00;;;;;;5003767;28;19917;-87
2024/04/01 11:47:06;;;;;;;;;;;14.30;1.00;;;;;;5002558;28;19914;-85
2024/04/01 11:49:41;;;;;;;;;;;14.50;1.00;;;;;;4998358;28;20084;-87
2024/04/01 11:52:14;;;;;;;;;;;14.70;99.90;;;;;;5001497;28;19909;-86
2024/04/01 11:54:39;;;;;;;;;;;14.90;99.90;;;;;;4995327;28;19913;-87
2024/04/01 11:57:05;;;;;;;;;;;15.10;99.90;;;;;;4997225;28;19910;-86
2024/04/01 11:59:31;;;;;;;;;;;15.20;1.00;;;;;;5013405;28;19965;-86
2024/04/01 12:01:57;;;;;;;;;;;15.30;1.00;;;;;;5003196;28;20004;-86
2024/04/01 12:04:23;;;;;;;;;;;15.40;1.00;;;;;;5004031;28;20392;-86
2024/04/01 12:06:49;;;;;;;;;;;15.40;1.00;;;;;;5011731;28;19917;-86
2024/04/01 12:09:16;;;;;;;;;;;15.40;1.00;;;;;;5003377;28;19914;-86
2024/04/01 12:11:43;;;;;;;;;;;15.40;1.00;;;;;;5011506;28;19944;-85
2024/04/01 12:14:09;;;;;;;;;;;15.50;1.00;;;;;;5015393;28;19917;-86
2024/04/01 12:16:34;;;;;;;;;;;15.60;1.00;;;;;;4995620;28;19960;-86
2024/04/01 12:19:04;;;;;;;;;;;15.70;1.00;;;;;;5004007;28;19917;-86
2024/04/01 12:21:31;;;;;;;;;;;15.70;1.00;;;;;;5000542;28;20363;-84
2024/04/01 12:23:57;;;;;;;;;;;15.80;1.00;;;;;;5000139;28;19909;-86
2024/04/01 12:26:22;;;;;;;;;;;15.80;1.00;;;;;;4994972;28;20368;-87
2024/04/01 12:28:51;;;;;;;;;;;15.80;1.00;;;;;;4986671;28;19921;-86
2024/04/01 12:31:18;;;;;;;;;;;15.80;1.00;;;;;;4986532;28;19913;-86
2024/04/01 12:33:44;;;;;;;;;;;15.90;1.00;;;;;;5004676;28;20011;-85
2024/04/01 12:36:12;;;;;;;;;;;16.00;1.00;;;;;;4993011;28;19925;-85
2024/04/01 12:38:40;;;;;;;;;;;16.10;99.90;;;;;;5003123;28;20040;-85
2024/04/01 12:41:07;;;;;;;;;;;16.20;99.90;;;;;;4998131;28;19914;-86
2024/04/01 12:43:33;;;;;;;;;;;16.40;99.90;;;;;;4983667;28;20063;-85
2024/04/01 12:45:59;;;;;;;;;;;16.40;99.90;;;;;;4999094;28;19988;-84
2024/04/01 12:48:25;;;;;;;;;;;16.50;99.90;;;;;;4998711;28;19914;-86
2024/04/01 12:50:52;;;;;;;;;;;16.50;99.90;;;;;;4993647;28;20287;-85
2024/04/01 12:53:36;;;;;;;;;;;16.50;99.90;;;;;;5001693;28;19921;-85
2024/04/01 12:56:12;;;;;;;;;;;16.40;99.90;;;;;;5000924;28;19977;-84
2024/04/01 12:58:45;;;;;;;;;;;16.30;99.90;;;;;;4993482;28;20439;-87
2024/04/01 13:01:10;;;;;;;;;;;16.30;99.90;;;;;;4999859;28;19913;-87
2024/04/01 13:03:56;;;;;;;;;;;16.30;99.90;;;;;;4985848;28;19937;-87
2024/04/01 13:06:25;;;;;;;;;;;16.30;99.90;;;;;;5003030;28;19967;-86
2024/04/01 13:09:09;;;;;;;;;;;16.30;99.90;;;;;;4981217;28;19952;-85
2024/04/01 13:11:51;;;;;;;;;;;16.20;99.90;;;;;;5001462;28;19914;-85
2024/04/01 13:14:25;;;;;;;;;;;16.20;99.90;;;;;;4999103;28;19922;-84
2024/04/01 13:17:00;;;;;;;;;;;16.10;99.90;;;;;;4997974;28;20029;-86
2024/04/01 13:19:48;;;;;;;;;;;16.00;99.90;;;;;;5000500;28;19913;-86
2024/04/01 13:22:20;;;;;;;;;;;16.00;99.90;;;;;;4997135;28;19945;-86
2024/04/01 13:24:49;;;;;;;;;;;16.00;99.90;;;;;;5003551;28;19920;-85
2024/04/01 13:27:19;;;;;;;;;;;16.00;99.90;;;;;;5002689;28;19914;-85
2024/04/01 13:30:06;;;;;;;;;;;15.90;99.90;;;;;;5003095;28;19915;-84
2024/04/01 13:32:51;;;;;;;;;;;15.90;99.90;;;;;;4988680;28;20321;-87
2024/04/01 13:35:24;;;;;;;;;;;15.80;99.90;;;;;;4989308;28;19917;-84
2024/04/01 13:38:13;;;;;;;;;;;15.80;99.90;;;;;;4990002;28;19921;-86
2024/04/01 13:40:41;;;;;;;;;;;15.70;99.90;;;;;;4994907;28;19914;-88
2024/04/01 13:43:13;;;;;;;;;;;15.70;99.90;;;;;;5004933;28;20000;-86
2024/04/01 13:45:50;;;;;;;;;;;15.80;99.90;;;;;;5008044;28;19921;-86
2024/04/01 13:48:25;;;;;;;;;;;15.90;99.90;;;;;;5002224;28;19913;-83
2024/04/01 13:51:06;;;;;;;;;;;16.10;99.90;;;;;;5001214;28;20294;-86
2024/04/01 13:53:31;;;;;;;;;;;16.20;99.90;;;;;;5004072;28;19913;-86
2024/04/01 13:56:15;;;;;;;;;;;16.30;99.90;;;;;;4987322;28;19918;-88
2024/04/01 13:58:49;;;;;;;;;;;16.40;99.90;;;;;;5002547;28;20041;-85
2024/04/01 14:01:19;;;;;;;;;;;16.50;99.90;;;;;;4995665;28;19917;-86
2024/04/01 14:04:05;;;;;;;;;;;16.70;99.90;;;;;;4979906;28;20019;-86
2024/04/01 14:06:45;;;;;;;;;;;16.80;99.90;;;;;;4983638;28;20286;-86
2024/04/01 14:09:27;;;;;;;;;;;16.80;99.90;;;;;;4999662;28;19929;-86
2024/04/01 14:12:04;;;;;;;;;;;16.90;99.90;;;;;;5003067;28;20265;-85
2024/04/01 14:14:29;;;;;;;;;;;17.00;99.90;;;;;;4996867;28;19932;-86
2024/04/01 14:17:02;;;;;;;;;;;17.10;99.90;;;;;;5005016;28;19914;-86
2024/04/01 14:19:38;;;;;;;;;;;17.20;99.90;;;;;;5001011;28;20399;-87
2024/04/01 14:22:04;;;;;;;;;;;17.30;99.90;;;;;;4999716;28;19971;-88
2024/04/01 14:24:30;;;;;;;;;;;17.50;99.90;;;;;;4985130;28;19917;-86
2024/04/01 14:26:56;;;;;;;;;;;17.70;99.90;;;;;;5003215;28;19955;-86
2024/04/01 14:29:21;;;;;;;;;;;17.80;99.90;;;;;;5002572;28;19921;-87
2024/04/01 14:31:47;;;;;;;;;;;18.00;99.90;;;;;;5002233;28;19913;-88
2024/04/01 14:34:12;;;;;;;;;;;18.00;99.90;;;;;;5005724;28;19961;-86